Nearby METAR Reports

 

KPMP - Pompano Beach, Florida, USA
Distance from station: NNW 3mi, 5km
Updated: 07/15/2018 3:53pm
Few Clouds
Few Clouds
 Wind from E
Wind: E 10 mph , 17 km/h
Temperature: 90°F , 32°C
Heat Index: 97°F , 36°C
Dew Point: 72°F , 22°C
Humidity: 55%
Barometer: 30.04 inHg , 1017.3 hPa
Clouds: Few Clouds
Visibility: 10 miles , 16 km
Cloud details: Few Clouds 3700 ft
2018/07/15 19:53 KPMP 151953Z 08009KT 10SM FEW037 32/22 A3004 RMK AO2 LTG DSNT NW SLP172 T03170222
KFXE - Ft Lauderd/Exec, Florida, USA
Distance from station: W 6mi, 9km
Updated: 07/15/2018 3:53pm
Partly cloudy
Partly cloudy
 Wind from E
Wind: E 9 mph , 15 km/h
Temperature: 91°F , 33°C
Heat Index: 100°F , 38°C
Dew Point: 73°F , 23°C
Humidity: 56%
Barometer: 30.03 inHg , 1016.9 hPa
Clouds: Partly cloudy
Visibility: 10 miles , 16 km
Cloud details: Partly cloudy 5000 ft
2018/07/15 19:53 KFXE 151953Z AUTO 08008KT 10SM SCT050 33/23 A3003 RMK AO2 LTG DSNT NW SLP171 T03280228
 
KFLL - Ft Lauderd/Holly, Florida, USA
Distance from station: SSW 11mi, 17km
Updated: 07/15/2018 3:53pm
Mostly cloudy
Mostly cloudy
 Wind from E
Wind: E 10 mph , 17 km/h
Temperature: 88°F , 31°C
Heat Index: 95°F , 35°C
Dew Point: 72°F , 22°C
Humidity: 59%
Barometer: 30.03 inHg , 1016.9 hPa
Clouds: Mostly cloudy
Visibility: 10 miles , 16 km
Cloud details: Few Clouds 3500 ft
Mostly cloudy 25000 ft
2018/07/15 19:53 KFLL 151953Z 10009KT 10SM FEW035 BKN250 31/22 A3003 RMK AO2 SLP169 T03060222
KBCT - Boca Raton, Florida, USA
Distance from station: N 12mi, 19km
Updated: 07/15/2018 3:51pm
Clear
Clear
 Wind from E
Wind: E 12 mph , 19 km/h
Temperature: 90°F , 32°C
Heat Index: 99°F , 37°C
Dew Point: 73°F , 23°C
Humidity: 59%
Barometer: 30.04 inHg , 1017.3 hPa
Clouds: Clear
Visibility: 10 miles , 16 km
2018/07/15 19:51 KBCT 151951Z 10010KT 10SM CLR 32/23 A3004
 
KHWO - Hollywood, Florida, USA
Distance from station: SSW 17mi, 27km
Updated: 07/15/2018 3:53pm
Clear
Clear
 Wind from E
Wind: E 14 mph , 22 km/h
Temperature: 91°F , 33°C
Heat Index: 98°F , 37°C
Dew Point: 72°F , 22°C
Humidity: 52%
Barometer: 30.04 inHg , 1017.3 hPa
Clouds: Clear
Visibility: 10 miles , 16 km
2018/07/15 19:53 KHWO 151953Z 10012KT 10SM CLR 33/22 A3004 RMK AO2 SLP173 T03280222
KOPF - Miami/Opa Locka, Florida, USA
Distance from station: SSW 24mi, 38km
Updated: 07/15/2018 3:53pm
Partly cloudy
Partly cloudy
 Wind from SSE
Wind: SSE 8 mph , 13 km/h
Temperature: 90°F , 32°C
Heat Index: 99°F , 37°C
Dew Point: 73°F , 23°C
Humidity: 59%
Barometer: 30.03 inHg , 1016.9 hPa
Clouds: Partly cloudy
Visibility: 10 miles , 16 km
Cloud details: Partly cloudy 5000 ft
2018/07/15 19:53 KOPF 151953Z 16007KT 10SM SCT050 32/23 A3003 RMK AO2 SLP170 T03170228
 
KMIA - Miami, Florida, USA
Distance from station: SSW 31mi, 50km
Updated: 07/15/2018 3:53pm
Mostly cloudy
Mostly cloudy
 Wind from SE
Wind: SE 12 mph , 19 km/h
Temperature: 88°F , 31°C
Heat Index: 95°F , 35°C
Dew Point: 72°F , 22°C
Humidity: 59%
Barometer: 30.03 inHg , 1016.9 hPa
Clouds: Mostly cloudy
Visibility: 10 miles , 16 km
Cloud details: Partly cloudy 4500 ft
Partly cloudy 7000 ft
Mostly cloudy 25000 ft
2018/07/15 19:53 KMIA 151953Z 14010KT 10SM SCT045 SCT070 BKN250 31/22 A3003 RMK AO2 SLP169 T03060222 $
KPBI - West Palm Beach, Florida, USA
Distance from station: N 33mi, 52km
Updated: 07/15/2018 3:53pm
Mostly cloudy
Mostly cloudy
 Wind from E
Wind: E 12 mph , 19 km/h
Temperature: 90°F , 32°C
Heat Index: 97°F , 36°C
Dew Point: 72°F , 22°C
Humidity: 55%
Barometer: 30.04 inHg , 1017.3 hPa
Clouds: Mostly cloudy
Visibility: 10 miles , 16 km
Cloud details: Partly cloudy 3000 ft
Mostly cloudy 25000 ft
2018/07/15 19:53 KPBI 151953Z 10010KT 10SM SCT030 BKN250 32/22 A3004 RMK AO2 LTG DSNT W AND NW SLP172 CB DSNT W T03170217
 
KTMB - Miami/Tamiami, Florida, USA
Distance from station: SSW 44mi, 71km
Updated: 07/15/2018 3:53pm
Few Clouds
Few Clouds
 Wind from SE
Wind: SE 10 mph , 17 km/h
Temperature: 90°F , 32°C
Heat Index: 97°F , 36°C
Dew Point: 72°F , 22°C
Humidity: 55%
Barometer: 30.03 inHg , 1016.9 hPa
Clouds: Few Clouds
Visibility: 10 miles , 16 km
Cloud details: Few Clouds 4900 ft
2018/07/15 19:53 KTMB 151953Z 14009KT 10SM FEW049 32/22 A3003 RMK AO2 SLP167 T03220222